M/V Nihal — E5U2813 — position and weather

sailwx.info

Track history (hours):
 
Tides and Currents Weather Stations Pressure Air Temp Water Temp Dewpoint Dewpoint Depression Visibility Wind Speed Wind Dir Waves Ship Positions

M/V Nihal

Last reported at 2017-Nov-15 11:06 UTC. Time now 2017-Nov-20 17:23 UTC.
Position N 46°32' E 032°10'.

Length 100 m; draft 6.6 m.

Type: Cargo ship. MMSI: 518866000.

Date/timePositionNaut miles runAvg speedWind from/ knotsBaromVisibWave heightAir tempDewpointWater temp
2017-Nov-15 11:06N 46°32' E 032°10'1 8.4
2017-Nov-15 10:56N 46°32' E 032°08'3 8.1
2017-Nov-15 10:30N 46°32' E 032°03'4 8.4
2017-Nov-15 10:00N 46°33' E 031°58'4 8.3
2017-Nov-15 09:30N 46°35' E 031°52'17 8.1
2017-Nov-15 07:26N 46°35' E 031°28'22 7.3
2017-Nov-15 04:29N 46°31' E 030°57'4 6.1
2017-Nov-15 03:55N 46°27' E 030°57'167 7.9
2017-Nov-14 06:37N 43°44' E 030°05'1 8.8
2017-Nov-14 06:30N 43°43' E 030°04'5 8.7
2017-Nov-14 05:59N 43°39' E 030°03'4 8.8
2017-Nov-14 05:30N 43°35' E 030°01'  
2017-Nov-09 22:38N 36°01' E 030°24'  
Track history (hours):
 
Tides and Currents Weather Stations Pressure Air Temp Water Temp Dewpoint Dewpoint Depression Visibility Wind Speed Wind Dir Waves Ship Positions

M/V Nihal

Last reported at 2017-Nov-15 11:06 UTC. Time now 2017-Nov-20 17:24 UTC.
Position N 46°32' E 032°10'.

Length 100 m; draft 6.6 m.

Type: Cargo ship. MMSI: 518866000.

Date/timePositionNaut miles runAvg speedWind from/ knotsBaromVisibWave heightAir tempDewpointWater temp
2017-Nov-15 11:06N 46°32' E 032°10'1 8.4
2017-Nov-15 10:56N 46°32' E 032°08'3 8.1
2017-Nov-15 10:30N 46°32' E 032°03'4 8.4
2017-Nov-15 10:00N 46°33' E 031°58'4 8.3
2017-Nov-15 09:30N 46°35' E 031°52'17 8.1
2017-Nov-15 07:26N 46°35' E 031°28'22 7.3
2017-Nov-15 04:29N 46°31' E 030°57'4 6.1
2017-Nov-15 03:55N 46°27' E 030°57'167 7.9
2017-Nov-14 06:37N 43°44' E 030°05'1 8.8
2017-Nov-14 06:30N 43°43' E 030°04'5 8.7
2017-Nov-14 05:59N 43°39' E 030°03'4 8.8
2017-Nov-14 05:30N 43°35' E 030°01'  
2017-Nov-09 22:38N 36°01' E 030°24'  

Dump ship's entire track history